<?xml version="1.0" encoding="UTF-8" standalone="no" ?>
<gpx xmlns="http://www.topografix.com/GPX/1/1" xmlns:xsi="http://www.w3.org/2001/XMLSchema-instance" xsi:schemaLocation="http://www.topografix.com/GPX/1/1 http://www.topografix.com/GPX/1/1/gpx.xsd" version="1.1" creator="VisuGPX - https://www.visugpx.com">
  <metadata>
    <name>Les Hauts de Gaillac</name>
    <desc><![CDATA[
]]></desc>
  </metadata>
  <trk>
    <name><![CDATA[Les Hauts de Gaillac]]></name>
    <trkseg>
      <trkpt lat="43.9101" lon="1.90025">
        <ele>142</ele>
        <time>2008-01-30T09:59:3.000Z</time>
      </trkpt>
      <trkpt lat="43.91018" lon="1.90013">
        <ele>142</ele>
        <time>2008-01-30T10:06:10.000Z</time>
      </trkpt>
      <trkpt lat="43.91008" lon="1.89988">
        <ele>142</ele>
        <time>2008-01-30T10:25:16.000Z</time>
      </trkpt>
      <trkpt lat="43.91003" lon="1.89945">
        <ele>141</ele>
        <time>2008-01-30T10:25:49.000Z</time>
      </trkpt>
      <trkpt lat="43.91003" lon="1.89912">
        <ele>141</ele>
        <time>2008-01-30T10:26:11.000Z</time>
      </trkpt>
      <trkpt lat="43.90987" lon="1.89898">
        <ele>141</ele>
        <time>2008-01-30T10:26:31.000Z</time>
      </trkpt>
      <trkpt lat="43.90932" lon="1.89913">
        <ele>141</ele>
        <time>2008-01-30T10:27:21.000Z</time>
      </trkpt>
      <trkpt lat="43.90905" lon="1.89905">
        <ele>140</ele>
        <time>2008-01-30T10:27:45.000Z</time>
      </trkpt>
      <trkpt lat="43.90868" lon="1.8989">
        <ele>140</ele>
        <time>2008-01-30T10:28:16.000Z</time>
      </trkpt>
      <trkpt lat="43.9085" lon="1.89868">
        <ele>140</ele>
        <time>2008-01-30T10:28:37.000Z</time>
      </trkpt>
      <trkpt lat="43.90775" lon="1.89743">
        <ele>140</ele>
        <time>2008-01-30T10:30:20.000Z</time>
      </trkpt>
      <trkpt lat="43.9076" lon="1.8971">
        <ele>141</ele>
        <time>2008-01-30T10:30:42.000Z</time>
      </trkpt>
      <trkpt lat="43.90745" lon="1.89683">
        <ele>141</ele>
        <time>2008-01-30T10:31:3.000Z</time>
      </trkpt>
      <trkpt lat="43.90727" lon="1.89627">
        <ele>141</ele>
        <time>2008-01-30T10:31:38.000Z</time>
      </trkpt>
      <trkpt lat="43.9071" lon="1.8959">
        <ele>141</ele>
        <time>2008-01-30T10:32:2.000Z</time>
      </trkpt>
      <trkpt lat="43.90693" lon="1.89558">
        <ele>141</ele>
        <time>2008-01-30T10:32:24.000Z</time>
      </trkpt>
      <trkpt lat="43.9065" lon="1.89478">
        <ele>142</ele>
        <time>2008-01-30T10:33:23.000Z</time>
      </trkpt>
      <trkpt lat="43.90623" lon="1.89427">
        <ele>142</ele>
        <time>2008-01-30T10:34:0.000Z</time>
      </trkpt>
      <trkpt lat="43.90625" lon="1.89388">
        <ele>143</ele>
        <time>2008-01-30T10:34:25.000Z</time>
      </trkpt>
      <trkpt lat="43.90633" lon="1.89353">
        <ele>143</ele>
        <time>2008-01-30T10:34:46.000Z</time>
      </trkpt>
      <trkpt lat="43.90647" lon="1.89327">
        <ele>143</ele>
        <time>2008-01-30T10:35:0.000Z</time>
      </trkpt>
      <trkpt lat="43.90658" lon="1.89308">
        <ele>143</ele>
        <time>2008-01-30T10:35:11.000Z</time>
      </trkpt>
      <trkpt lat="43.90663" lon="1.89287">
        <ele>143</ele>
        <time>2008-01-30T10:35:26.000Z</time>
      </trkpt>
      <trkpt lat="43.9067" lon="1.89247">
        <ele>143</ele>
        <time>2008-01-30T10:35:48.000Z</time>
      </trkpt>
      <trkpt lat="43.90672" lon="1.89218">
        <ele>143</ele>
        <time>2008-01-30T10:36:3.000Z</time>
      </trkpt>
      <trkpt lat="43.90672" lon="1.8919">
        <ele>143</ele>
        <time>2008-01-30T10:36:18.000Z</time>
      </trkpt>
      <trkpt lat="43.9066" lon="1.89143">
        <ele>143</ele>
        <time>2008-01-30T10:36:40.000Z</time>
      </trkpt>
      <trkpt lat="43.9066" lon="1.89103">
        <ele>142</ele>
        <time>2008-01-30T10:37:2.000Z</time>
      </trkpt>
      <trkpt lat="43.9066" lon="1.89058">
        <ele>142</ele>
        <time>2008-01-30T10:37:26.000Z</time>
      </trkpt>
      <trkpt lat="43.90665" lon="1.89027">
        <ele>142</ele>
        <time>2008-01-30T10:37:46.000Z</time>
      </trkpt>
      <trkpt lat="43.90667" lon="1.89">
        <ele>142</ele>
        <time>2008-01-30T10:38:0.000Z</time>
      </trkpt>
      <trkpt lat="43.90672" lon="1.88975">
        <ele>142</ele>
        <time>2008-01-30T10:38:17.000Z</time>
      </trkpt>
      <trkpt lat="43.90667" lon="1.88937">
        <ele>142</ele>
        <time>2008-01-30T10:38:36.000Z</time>
      </trkpt>
      <trkpt lat="43.90667" lon="1.88877">
        <ele>142</ele>
        <time>2008-01-30T10:39:7.000Z</time>
      </trkpt>
      <trkpt lat="43.90668" lon="1.88842">
        <ele>143</ele>
        <time>2008-01-30T10:39:25.000Z</time>
      </trkpt>
      <trkpt lat="43.90673" lon="1.88793">
        <ele>143</ele>
        <time>2008-01-30T10:39:52.000Z</time>
      </trkpt>
      <trkpt lat="43.90693" lon="1.8877">
        <ele>144</ele>
        <time>2008-01-30T10:40:14.000Z</time>
      </trkpt>
      <trkpt lat="43.90748" lon="1.88692">
        <ele>144</ele>
        <time>2008-01-30T10:41:17.000Z</time>
      </trkpt>
      <trkpt lat="43.90767" lon="1.88665">
        <ele>145</ele>
        <time>2008-01-30T10:41:37.000Z</time>
      </trkpt>
      <trkpt lat="43.90778" lon="1.88642">
        <ele>145</ele>
        <time>2008-01-30T10:41:53.000Z</time>
      </trkpt>
      <trkpt lat="43.9079" lon="1.88613">
        <ele>145</ele>
        <time>2008-01-30T10:42:11.000Z</time>
      </trkpt>
      <trkpt lat="43.90805" lon="1.88575">
        <ele>145</ele>
        <time>2008-01-30T10:42:35.000Z</time>
      </trkpt>
      <trkpt lat="43.9085" lon="1.885">
        <ele>146</ele>
        <time>2008-01-30T10:43:34.000Z</time>
      </trkpt>
      <trkpt lat="43.90895" lon="1.88442">
        <ele>147</ele>
        <time>2008-01-30T10:44:24.000Z</time>
      </trkpt>
      <trkpt lat="43.9101" lon="1.88233">
        <ele>149</ele>
        <time>2008-01-30T10:46:51.000Z</time>
      </trkpt>
      <trkpt lat="43.91055" lon="1.88177">
        <ele>149</ele>
        <time>2008-01-30T10:47:38.000Z</time>
      </trkpt>
      <trkpt lat="43.91097" lon="1.88127">
        <ele>150</ele>
        <time>2008-01-30T10:48:21.000Z</time>
      </trkpt>
      <trkpt lat="43.912" lon="1.88047">
        <ele>151</ele>
        <time>2008-01-30T10:50:1.000Z</time>
      </trkpt>
      <trkpt lat="43.91225" lon="1.88022">
        <ele>151</ele>
        <time>2008-01-30T10:50:27.000Z</time>
      </trkpt>
      <trkpt lat="43.91262" lon="1.87988">
        <ele>151</ele>
        <time>2008-01-30T10:51:3.000Z</time>
      </trkpt>
      <trkpt lat="43.91332" lon="1.87937">
        <ele>152</ele>
        <time>2008-01-30T10:52:9.000Z</time>
      </trkpt>
      <trkpt lat="43.91387" lon="1.87885">
        <ele>153</ele>
        <time>2008-01-30T10:53:3.000Z</time>
      </trkpt>
      <trkpt lat="43.91433" lon="1.87845">
        <ele>154</ele>
        <time>2008-01-30T10:53:49.000Z</time>
      </trkpt>
      <trkpt lat="43.91478" lon="1.87785">
        <ele>155</ele>
        <time>2008-01-30T10:54:39.000Z</time>
      </trkpt>
      <trkpt lat="43.91563" lon="1.87672">
        <ele>156</ele>
        <time>2008-01-30T10:56:22.000Z</time>
      </trkpt>
      <trkpt lat="43.91585" lon="1.87705">
        <ele>156</ele>
        <time>2008-01-30T10:59:53.000Z</time>
      </trkpt>
      <trkpt lat="43.9161" lon="1.877">
        <ele>156</ele>
        <time>2008-01-30T11:00:12.000Z</time>
      </trkpt>
      <trkpt lat="43.91642" lon="1.87663">
        <ele>156</ele>
        <time>2008-01-30T11:00:43.000Z</time>
      </trkpt>
      <trkpt lat="43.91702" lon="1.87592">
        <ele>156</ele>
        <time>2008-01-30T11:01:41.000Z</time>
      </trkpt>
      <trkpt lat="43.91723" lon="1.87572">
        <ele>156</ele>
        <time>2008-01-30T11:02:1.000Z</time>
      </trkpt>
      <trkpt lat="43.91758" lon="1.87443">
        <ele>156</ele>
        <time>2008-01-30T11:03:17.000Z</time>
      </trkpt>
      <trkpt lat="43.91792" lon="1.87362">
        <ele>158</ele>
        <time>2008-01-30T11:04:14.000Z</time>
      </trkpt>
      <trkpt lat="43.91807" lon="1.8733">
        <ele>160</ele>
        <time>2008-01-30T11:04:38.000Z</time>
      </trkpt>
      <trkpt lat="43.91825" lon="1.87283">
        <ele>164</ele>
        <time>2008-01-30T11:05:14.000Z</time>
      </trkpt>
      <trkpt lat="43.91838" lon="1.87262">
        <ele>167</ele>
        <time>2008-01-30T11:05:36.000Z</time>
      </trkpt>
      <trkpt lat="43.91872" lon="1.87217">
        <ele>175</ele>
        <time>2008-01-30T11:06:26.000Z</time>
      </trkpt>
      <trkpt lat="43.9189" lon="1.87203">
        <ele>179</ele>
        <time>2008-01-30T11:06:49.000Z</time>
      </trkpt>
      <trkpt lat="43.9192" lon="1.87203">
        <ele>184</ele>
        <time>2008-01-30T11:07:31.000Z</time>
      </trkpt>
      <trkpt lat="43.91945" lon="1.87203">
        <ele>189</ele>
        <time>2008-01-30T11:08:4.000Z</time>
      </trkpt>
      <trkpt lat="43.91983" lon="1.87195">
        <ele>195</ele>
        <time>2008-01-30T11:08:44.000Z</time>
      </trkpt>
      <trkpt lat="43.92013" lon="1.8718">
        <ele>197</ele>
        <time>2008-01-30T11:09:13.000Z</time>
      </trkpt>
      <trkpt lat="43.92035" lon="1.87165">
        <ele>197</ele>
        <time>2008-01-30T11:09:33.000Z</time>
      </trkpt>
      <trkpt lat="43.92062" lon="1.87115">
        <ele>198</ele>
        <time>2008-01-30T11:10:15.000Z</time>
      </trkpt>
      <trkpt lat="43.92072" lon="1.8709">
        <ele>199</ele>
        <time>2008-01-30T11:10:32.000Z</time>
      </trkpt>
      <trkpt lat="43.92083" lon="1.87053">
        <ele>199</ele>
        <time>2008-01-30T11:10:59.000Z</time>
      </trkpt>
      <trkpt lat="43.92092" lon="1.87028">
        <ele>200</ele>
        <time>2008-01-30T11:11:16.000Z</time>
      </trkpt>
      <trkpt lat="43.92102" lon="1.86998">
        <ele>200</ele>
        <time>2008-01-30T11:11:44.000Z</time>
      </trkpt>
      <trkpt lat="43.92103" lon="1.86968">
        <ele>202</ele>
        <time>2008-01-30T11:13:53.000Z</time>
      </trkpt>
      <trkpt lat="43.92095" lon="1.86983">
        <ele>202</ele>
        <time>2008-01-30T11:15:52.000Z</time>
      </trkpt>
      <trkpt lat="43.92125" lon="1.86958">
        <ele>199</ele>
        <time>2008-01-30T11:16:45.000Z</time>
      </trkpt>
      <trkpt lat="43.9215" lon="1.86965">
        <ele>195</ele>
        <time>2008-01-30T11:17:12.000Z</time>
      </trkpt>
      <trkpt lat="43.92175" lon="1.86965">
        <ele>191</ele>
        <time>2008-01-30T11:17:34.000Z</time>
      </trkpt>
      <trkpt lat="43.92195" lon="1.8697">
        <ele>187</ele>
        <time>2008-01-30T11:18:20.000Z</time>
      </trkpt>
      <trkpt lat="43.92227" lon="1.86973">
        <ele>182</ele>
        <time>2008-01-30T11:18:46.000Z</time>
      </trkpt>
      <trkpt lat="43.9226" lon="1.8698">
        <ele>179</ele>
        <time>2008-01-30T11:19:11.000Z</time>
      </trkpt>
      <trkpt lat="43.92273" lon="1.86962">
        <ele>178</ele>
        <time>2008-01-30T11:19:27.000Z</time>
      </trkpt>
      <trkpt lat="43.92338" lon="1.86975">
        <ele>178</ele>
        <time>2008-01-30T11:20:17.000Z</time>
      </trkpt>
      <trkpt lat="43.92367" lon="1.86997">
        <ele>180</ele>
        <time>2008-01-30T11:20:43.000Z</time>
      </trkpt>
      <trkpt lat="43.92418" lon="1.87033">
        <ele>185</ele>
        <time>2008-01-30T11:21:36.000Z</time>
      </trkpt>
      <trkpt lat="43.92453" lon="1.87052">
        <ele>191</ele>
        <time>2008-01-30T11:22:17.000Z</time>
      </trkpt>
      <trkpt lat="43.9248" lon="1.87068">
        <ele>196</ele>
        <time>2008-01-30T11:22:53.000Z</time>
      </trkpt>
      <trkpt lat="43.92497" lon="1.87102">
        <ele>200</ele>
        <time>2008-01-30T11:23:34.000Z</time>
      </trkpt>
      <trkpt lat="43.92512" lon="1.871">
        <ele>203</ele>
        <time>2008-01-30T11:24:11.000Z</time>
      </trkpt>
      <trkpt lat="43.9256" lon="1.87078">
        <ele>212</ele>
        <time>2008-01-30T11:25:25.000Z</time>
      </trkpt>
      <trkpt lat="43.92575" lon="1.87082">
        <ele>215</ele>
        <time>2008-01-30T11:25:45.000Z</time>
      </trkpt>
      <trkpt lat="43.92598" lon="1.87075">
        <ele>219</ele>
        <time>2008-01-30T11:26:15.000Z</time>
      </trkpt>
      <trkpt lat="43.92617" lon="1.87077">
        <ele>220</ele>
        <time>2008-01-30T11:26:33.000Z</time>
      </trkpt>
      <trkpt lat="43.92633" lon="1.8708">
        <ele>221</ele>
        <time>2008-01-30T11:26:50.000Z</time>
      </trkpt>
      <trkpt lat="43.92665" lon="1.87067">
        <ele>223</ele>
        <time>2008-01-30T11:27:25.000Z</time>
      </trkpt>
      <trkpt lat="43.92692" lon="1.87047">
        <ele>224</ele>
        <time>2008-01-30T11:27:57.000Z</time>
      </trkpt>
      <trkpt lat="43.92757" lon="1.87012">
        <ele>228</ele>
        <time>2008-01-30T11:29:29.000Z</time>
      </trkpt>
      <trkpt lat="43.92892" lon="1.86973">
        <ele>238</ele>
        <time>2008-01-30T11:31:36.000Z</time>
      </trkpt>
      <trkpt lat="43.92898" lon="1.86995">
        <ele>236</ele>
        <time>2008-01-30T11:32:20.000Z</time>
      </trkpt>
      <trkpt lat="43.92902" lon="1.87015">
        <ele>234</ele>
        <time>2008-01-30T11:32:36.000Z</time>
      </trkpt>
      <trkpt lat="43.92915" lon="1.87068">
        <ele>228</ele>
        <time>2008-01-30T11:33:19.000Z</time>
      </trkpt>
      <trkpt lat="43.9292" lon="1.87088">
        <ele>226</ele>
        <time>2008-01-30T11:33:38.000Z</time>
      </trkpt>
      <trkpt lat="43.9294" lon="1.8712">
        <ele>222</ele>
        <time>2008-01-30T11:34:3.000Z</time>
      </trkpt>
      <trkpt lat="43.92952" lon="1.8713">
        <ele>221</ele>
        <time>2008-01-30T11:34:14.000Z</time>
      </trkpt>
      <trkpt lat="43.92962" lon="1.87097">
        <ele>221</ele>
        <time>2008-01-30T11:34:42.000Z</time>
      </trkpt>
      <trkpt lat="43.92967" lon="1.87033">
        <ele>223</ele>
        <time>2008-01-30T11:35:32.000Z</time>
      </trkpt>
      <trkpt lat="43.92992" lon="1.86933">
        <ele>222</ele>
        <time>2008-01-30T11:36:45.000Z</time>
      </trkpt>
      <trkpt lat="43.92995" lon="1.86908">
        <ele>223</ele>
        <time>2008-01-30T11:37:2.000Z</time>
      </trkpt>
      <trkpt lat="43.93022" lon="1.86827">
        <ele>220</ele>
        <time>2008-01-30T11:37:58.000Z</time>
      </trkpt>
      <trkpt lat="43.93018" lon="1.86778">
        <ele>222</ele>
        <time>2008-01-30T11:38:28.000Z</time>
      </trkpt>
      <trkpt lat="43.93013" lon="1.86738">
        <ele>224</ele>
        <time>2008-01-30T11:38:55.000Z</time>
      </trkpt>
      <trkpt lat="43.93028" lon="1.86715">
        <ele>222</ele>
        <time>2008-01-30T11:39:20.000Z</time>
      </trkpt>
      <trkpt lat="43.9306" lon="1.86742">
        <ele>216</ele>
        <time>2008-01-30T11:39:58.000Z</time>
      </trkpt>
      <trkpt lat="43.93087" lon="1.8675">
        <ele>211</ele>
        <time>2008-01-30T11:40:30.000Z</time>
      </trkpt>
      <trkpt lat="43.93138" lon="1.86767">
        <ele>207</ele>
        <time>2008-01-30T11:41:22.000Z</time>
      </trkpt>
      <trkpt lat="43.93157" lon="1.86767">
        <ele>210</ele>
        <time>2008-01-30T11:41:39.000Z</time>
      </trkpt>
      <trkpt lat="43.93173" lon="1.86772">
        <ele>213</ele>
        <time>2008-01-30T11:41:57.000Z</time>
      </trkpt>
      <trkpt lat="43.93185" lon="1.86802">
        <ele>214</ele>
        <time>2008-01-30T11:42:35.000Z</time>
      </trkpt>
      <trkpt lat="43.93202" lon="1.86823">
        <ele>216</ele>
        <time>2008-01-30T11:42:56.000Z</time>
      </trkpt>
      <trkpt lat="43.93233" lon="1.8683">
        <ele>220</ele>
        <time>2008-01-30T11:43:28.000Z</time>
      </trkpt>
      <trkpt lat="43.93257" lon="1.8683">
        <ele>223</ele>
        <time>2008-01-30T11:44:9.000Z</time>
      </trkpt>
      <trkpt lat="43.93275" lon="1.8683">
        <ele>224</ele>
        <time>2008-01-30T11:44:33.000Z</time>
      </trkpt>
      <trkpt lat="43.93302" lon="1.86822">
        <ele>224</ele>
        <time>2008-01-30T11:45:14.000Z</time>
      </trkpt>
      <trkpt lat="43.93305" lon="1.86895">
        <ele>223</ele>
        <time>2008-01-30T11:46:11.000Z</time>
      </trkpt>
      <trkpt lat="43.93313" lon="1.86883">
        <ele>224</ele>
        <time>2008-01-30T11:48:11.000Z</time>
      </trkpt>
      <trkpt lat="43.93315" lon="1.86847">
        <ele>224</ele>
        <time>2008-01-30T11:48:37.000Z</time>
      </trkpt>
      <trkpt lat="43.93315" lon="1.8681">
        <ele>224</ele>
        <time>2008-01-30T11:49:3.000Z</time>
      </trkpt>
      <trkpt lat="43.93312" lon="1.86747">
        <ele>226</ele>
        <time>2008-01-30T11:49:48.000Z</time>
      </trkpt>
      <trkpt lat="43.93307" lon="1.867">
        <ele>229</ele>
        <time>2008-01-30T11:50:22.000Z</time>
      </trkpt>
      <trkpt lat="43.93315" lon="1.86685">
        <ele>229</ele>
        <time>2008-01-30T11:50:57.000Z</time>
      </trkpt>
      <trkpt lat="43.93332" lon="1.86682">
        <ele>227</ele>
        <time>2008-01-30T11:51:41.000Z</time>
      </trkpt>
      <trkpt lat="43.93343" lon="1.86672">
        <ele>226</ele>
        <time>2008-01-30T11:52:4.000Z</time>
      </trkpt>
      <trkpt lat="43.93357" lon="1.86662">
        <ele>224</ele>
        <time>2008-01-30T11:52:30.000Z</time>
      </trkpt>
      <trkpt lat="43.9337" lon="1.86642">
        <ele>223</ele>
        <time>2008-01-30T11:52:52.000Z</time>
      </trkpt>
      <trkpt lat="43.93382" lon="1.8662">
        <ele>222</ele>
        <time>2008-01-30T11:53:10.000Z</time>
      </trkpt>
      <trkpt lat="43.93427" lon="1.8655">
        <ele>228</ele>
        <time>2008-01-30T11:53:39.000Z</time>
      </trkpt>
      <trkpt lat="43.93433" lon="1.86537">
        <ele>230</ele>
        <time>2008-01-30T11:54:3.000Z</time>
      </trkpt>
      <trkpt lat="43.93453" lon="1.86532">
        <ele>231</ele>
        <time>2008-01-30T11:54:33.000Z</time>
      </trkpt>
      <trkpt lat="43.93467" lon="1.8653">
        <ele>231</ele>
        <time>2008-01-30T11:54:56.000Z</time>
      </trkpt>
      <trkpt lat="43.93488" lon="1.86518">
        <ele>231</ele>
        <time>2008-01-30T11:55:22.000Z</time>
      </trkpt>
      <trkpt lat="43.93502" lon="1.86512">
        <ele>231</ele>
        <time>2008-01-30T11:55:44.000Z</time>
      </trkpt>
      <trkpt lat="43.93512" lon="1.86492">
        <ele>231</ele>
        <time>2008-01-30T11:56:13.000Z</time>
      </trkpt>
      <trkpt lat="43.93505" lon="1.86467">
        <ele>232</ele>
        <time>2008-01-30T11:56:35.000Z</time>
      </trkpt>
      <trkpt lat="43.93502" lon="1.86447">
        <ele>233</ele>
        <time>2008-01-30T11:56:51.000Z</time>
      </trkpt>
      <trkpt lat="43.93497" lon="1.8642">
        <ele>234</ele>
        <time>2008-01-30T11:57:8.000Z</time>
      </trkpt>
      <trkpt lat="43.93492" lon="1.86388">
        <ele>236</ele>
        <time>2008-01-30T11:57:29.000Z</time>
      </trkpt>
      <trkpt lat="43.93483" lon="1.86312">
        <ele>241</ele>
        <time>2008-01-30T11:58:23.000Z</time>
      </trkpt>
      <trkpt lat="43.9348" lon="1.86283">
        <ele>244</ele>
        <time>2008-01-30T11:58:47.000Z</time>
      </trkpt>
      <trkpt lat="43.93472" lon="1.8625">
        <ele>248</ele>
        <time>2008-01-30T11:59:17.000Z</time>
      </trkpt>
      <trkpt lat="43.93458" lon="1.86218">
        <ele>252</ele>
        <time>2008-01-30T11:59:52.000Z</time>
      </trkpt>
      <trkpt lat="43.93453" lon="1.86198">
        <ele>254</ele>
        <time>2008-01-30T12:00:9.000Z</time>
      </trkpt>
      <trkpt lat="43.93443" lon="1.8614">
        <ele>255</ele>
        <time>2008-01-30T12:00:56.000Z</time>
      </trkpt>
      <trkpt lat="43.93442" lon="1.86098">
        <ele>255</ele>
        <time>2008-01-30T12:01:24.000Z</time>
      </trkpt>
      <trkpt lat="43.93423" lon="1.86033">
        <ele>259</ele>
        <time>2008-01-30T12:02:10.000Z</time>
      </trkpt>
      <trkpt lat="43.9341" lon="1.85997">
        <ele>260</ele>
        <time>2008-01-30T12:02:35.000Z</time>
      </trkpt>
      <trkpt lat="43.93383" lon="1.85955">
        <ele>262</ele>
        <time>2008-01-30T12:03:8.000Z</time>
      </trkpt>
      <trkpt lat="43.9337" lon="1.85938">
        <ele>262</ele>
        <time>2008-01-30T12:03:26.000Z</time>
      </trkpt>
      <trkpt lat="43.93355" lon="1.85908">
        <ele>261</ele>
        <time>2008-01-30T12:03:48.000Z</time>
      </trkpt>
      <trkpt lat="43.93368" lon="1.85908">
        <ele>260</ele>
        <time>2008-01-30T12:04:26.000Z</time>
      </trkpt>
      <trkpt lat="43.93367" lon="1.85878">
        <ele>257</ele>
        <time>2008-01-30T12:04:47.000Z</time>
      </trkpt>
      <trkpt lat="43.93367" lon="1.85842">
        <ele>253</ele>
        <time>2008-01-30T12:05:15.000Z</time>
      </trkpt>
      <trkpt lat="43.93365" lon="1.85815">
        <ele>250</ele>
        <time>2008-01-30T12:05:37.000Z</time>
      </trkpt>
      <trkpt lat="43.93373" lon="1.85782">
        <ele>246</ele>
        <time>2008-01-30T12:06:10.000Z</time>
      </trkpt>
      <trkpt lat="43.93378" lon="1.8575">
        <ele>243</ele>
        <time>2008-01-30T12:06:35.000Z</time>
      </trkpt>
      <trkpt lat="43.93388" lon="1.85697">
        <ele>238</ele>
        <time>2008-01-30T12:07:19.000Z</time>
      </trkpt>
      <trkpt lat="43.93393" lon="1.85675">
        <ele>238</ele>
        <time>2008-01-30T12:07:38.000Z</time>
      </trkpt>
      <trkpt lat="43.93407" lon="1.85642">
        <ele>236</ele>
        <time>2008-01-30T12:08:16.000Z</time>
      </trkpt>
      <trkpt lat="43.93418" lon="1.85632">
        <ele>235</ele>
        <time>2008-01-30T12:08:35.000Z</time>
      </trkpt>
      <trkpt lat="43.93435" lon="1.8563">
        <ele>233</ele>
        <time>2008-01-30T12:09:4.000Z</time>
      </trkpt>
      <trkpt lat="43.93442" lon="1.85615">
        <ele>232</ele>
        <time>2008-01-30T12:09:26.000Z</time>
      </trkpt>
      <trkpt lat="43.93465" lon="1.85578">
        <ele>228</ele>
        <time>2008-01-30T12:10:1.000Z</time>
      </trkpt>
      <trkpt lat="43.93467" lon="1.85552">
        <ele>227</ele>
        <time>2008-01-30T12:10:30.000Z</time>
      </trkpt>
      <trkpt lat="43.93462" lon="1.85517">
        <ele>227</ele>
        <time>2008-01-30T12:10:54.000Z</time>
      </trkpt>
      <trkpt lat="43.93462" lon="1.85492">
        <ele>227</ele>
        <time>2008-01-30T12:11:18.000Z</time>
      </trkpt>
      <trkpt lat="43.93475" lon="1.85495">
        <ele>224</ele>
        <time>2008-01-30T12:11:35.000Z</time>
      </trkpt>
      <trkpt lat="43.9349" lon="1.85508">
        <ele>221</ele>
        <time>2008-01-30T12:11:58.000Z</time>
      </trkpt>
      <trkpt lat="43.93503" lon="1.85505">
        <ele>220</ele>
        <time>2008-01-30T12:12:25.000Z</time>
      </trkpt>
      <trkpt lat="43.93525" lon="1.85505">
        <ele>219</ele>
        <time>2008-01-30T12:12:27.000Z</time>
      </trkpt>
      <trkpt lat="43.93542" lon="1.85505">
        <ele>218</ele>
        <time>2008-01-30T12:12:33.000Z</time>
      </trkpt>
      <trkpt lat="43.93557" lon="1.85498">
        <ele>218</ele>
        <time>2008-01-30T12:13:1.000Z</time>
      </trkpt>
      <trkpt lat="43.93575" lon="1.855">
        <ele>217</ele>
        <time>2008-01-30T12:13:23.000Z</time>
      </trkpt>
      <trkpt lat="43.93587" lon="1.85535">
        <ele>217</ele>
        <time>2008-01-30T12:13:55.000Z</time>
      </trkpt>
      <trkpt lat="43.93592" lon="1.8556">
        <ele>216</ele>
        <time>2008-01-30T12:14:17.000Z</time>
      </trkpt>
      <trkpt lat="43.93615" lon="1.8558">
        <ele>215</ele>
        <time>2008-01-30T12:14:40.000Z</time>
      </trkpt>
      <trkpt lat="43.93637" lon="1.85612">
        <ele>213</ele>
        <time>2008-01-30T12:15:5.000Z</time>
      </trkpt>
      <trkpt lat="43.93657" lon="1.8564">
        <ele>212</ele>
        <time>2008-01-30T12:15:29.000Z</time>
      </trkpt>
      <trkpt lat="43.93663" lon="1.85663">
        <ele>211</ele>
        <time>2008-01-30T12:15:47.000Z</time>
      </trkpt>
      <trkpt lat="43.93665" lon="1.85692">
        <ele>208</ele>
        <time>2008-01-30T12:16:5.000Z</time>
      </trkpt>
      <trkpt lat="43.9368" lon="1.85747">
        <ele>208</ele>
        <time>2008-01-30T12:16:40.000Z</time>
      </trkpt>
      <trkpt lat="43.93702" lon="1.85805">
        <ele>206</ele>
        <time>2008-01-30T12:17:18.000Z</time>
      </trkpt>
      <trkpt lat="43.93708" lon="1.85835">
        <ele>204</ele>
        <time>2008-01-30T12:17:38.000Z</time>
      </trkpt>
      <trkpt lat="43.93715" lon="1.85863">
        <ele>202</ele>
        <time>2008-01-30T12:17:57.000Z</time>
      </trkpt>
      <trkpt lat="43.93728" lon="1.85928">
        <ele>201</ele>
        <time>2008-01-30T12:18:38.000Z</time>
      </trkpt>
      <trkpt lat="43.93747" lon="1.85975">
        <ele>200</ele>
        <time>2008-01-30T12:19:8.000Z</time>
      </trkpt>
      <trkpt lat="43.93755" lon="1.86017">
        <ele>198</ele>
        <time>2008-01-30T12:19:37.000Z</time>
      </trkpt>
      <trkpt lat="43.93783" lon="1.86035">
        <ele>198</ele>
        <time>2008-01-30T12:20:5.000Z</time>
      </trkpt>
      <trkpt lat="43.9381" lon="1.8605">
        <ele>199</ele>
        <time>2008-01-30T12:20:27.000Z</time>
      </trkpt>
      <trkpt lat="43.93852" lon="1.86063">
        <ele>199</ele>
        <time>2008-01-30T12:21:0.000Z</time>
      </trkpt>
      <trkpt lat="43.93873" lon="1.86068">
        <ele>200</ele>
        <time>2008-01-30T12:21:28.000Z</time>
      </trkpt>
      <trkpt lat="43.93893" lon="1.86093">
        <ele>203</ele>
        <time>2008-01-30T12:22:3.000Z</time>
      </trkpt>
      <trkpt lat="43.93893" lon="1.86113">
        <ele>204</ele>
        <time>2008-01-30T12:22:17.000Z</time>
      </trkpt>
      <trkpt lat="43.93907" lon="1.86135">
        <ele>206</ele>
        <time>2008-01-30T12:22:36.000Z</time>
      </trkpt>
      <trkpt lat="43.93932" lon="1.8613">
        <ele>209</ele>
        <time>2008-01-30T12:22:56.000Z</time>
      </trkpt>
      <trkpt lat="43.93982" lon="1.86072">
        <ele>208</ele>
        <time>2008-01-30T12:23:47.000Z</time>
      </trkpt>
      <trkpt lat="43.94" lon="1.86047">
        <ele>209</ele>
        <time>2008-01-30T12:24:9.000Z</time>
      </trkpt>
      <trkpt lat="43.94022" lon="1.86015">
        <ele>208</ele>
        <time>2008-01-30T12:24:31.000Z</time>
      </trkpt>
      <trkpt lat="43.94038" lon="1.8598">
        <ele>207</ele>
        <time>2008-01-30T12:24:51.000Z</time>
      </trkpt>
      <trkpt lat="43.94058" lon="1.85947">
        <ele>207</ele>
        <time>2008-01-30T12:25:13.000Z</time>
      </trkpt>
      <trkpt lat="43.9408" lon="1.8593">
        <ele>210</ele>
        <time>2008-01-30T12:25:37.000Z</time>
      </trkpt>
      <trkpt lat="43.94117" lon="1.85938">
        <ele>216</ele>
        <time>2008-01-30T12:26:21.000Z</time>
      </trkpt>
      <trkpt lat="43.94133" lon="1.85943">
        <ele>219</ele>
        <time>2008-01-30T12:26:42.000Z</time>
      </trkpt>
      <trkpt lat="43.94147" lon="1.85935">
        <ele>221</ele>
        <time>2008-01-30T12:27:0.000Z</time>
      </trkpt>
      <trkpt lat="43.9416" lon="1.85917">
        <ele>223</ele>
        <time>2008-01-30T12:27:19.000Z</time>
      </trkpt>
      <trkpt lat="43.94188" lon="1.85905">
        <ele>226</ele>
        <time>2008-01-30T12:27:51.000Z</time>
      </trkpt>
      <trkpt lat="43.9421" lon="1.85905">
        <ele>229</ele>
        <time>2008-01-30T12:28:14.000Z</time>
      </trkpt>
      <trkpt lat="43.94223" lon="1.85898">
        <ele>231</ele>
        <time>2008-01-30T12:28:41.000Z</time>
      </trkpt>
      <trkpt lat="43.94223" lon="1.85878">
        <ele>230</ele>
        <time>2008-01-30T12:29:59.000Z</time>
      </trkpt>
      <trkpt lat="43.94222" lon="1.85893">
        <ele>230</ele>
        <time>2008-01-30T12:33:53.000Z</time>
      </trkpt>
      <trkpt lat="43.94235" lon="1.85885">
        <ele>232</ele>
        <time>2008-01-30T12:34:0.000Z</time>
      </trkpt>
      <trkpt lat="43.94223" lon="1.85908">
        <ele>231</ele>
        <time>2008-01-30T12:35:8.000Z</time>
      </trkpt>
      <trkpt lat="43.9424" lon="1.85903">
        <ele>233</ele>
        <time>2008-01-30T12:36:39.000Z</time>
      </trkpt>
      <trkpt lat="43.94222" lon="1.85912">
        <ele>231</ele>
        <time>2008-01-30T12:36:44.000Z</time>
      </trkpt>
      <trkpt lat="43.94203" lon="1.85918">
        <ele>229</ele>
        <time>2008-01-30T12:37:18.000Z</time>
      </trkpt>
      <trkpt lat="43.9422" lon="1.8592">
        <ele>231</ele>
        <time>2008-01-30T12:37:55.000Z</time>
      </trkpt>
      <trkpt lat="43.94213" lon="1.8591">
        <ele>230</ele>
        <time>2008-01-30T12:59:23.000Z</time>
      </trkpt>
      <trkpt lat="43.9418" lon="1.85895">
        <ele>225</ele>
        <time>2008-01-30T13:01:58.000Z</time>
      </trkpt>
      <trkpt lat="43.94217" lon="1.85902">
        <ele>230</ele>
        <time>2008-01-30T13:02:47.000Z</time>
      </trkpt>
      <trkpt lat="43.94188" lon="1.85892">
        <ele>226</ele>
        <time>2008-01-30T13:02:51.000Z</time>
      </trkpt>
      <trkpt lat="43.94208" lon="1.85902">
        <ele>229</ele>
        <time>2008-01-30T13:04:2.000Z</time>
      </trkpt>
      <trkpt lat="43.94218" lon="1.85875">
        <ele>229</ele>
        <time>2008-01-30T13:06:19.000Z</time>
      </trkpt>
      <trkpt lat="43.94207" lon="1.8586">
        <ele>227</ele>
        <time>2008-01-30T13:06:58.000Z</time>
      </trkpt>
      <trkpt lat="43.94202" lon="1.8584">
        <ele>225</ele>
        <time>2008-01-30T13:07:42.000Z</time>
      </trkpt>
      <trkpt lat="43.94197" lon="1.85812">
        <ele>222</ele>
        <time>2008-01-30T13:08:13.000Z</time>
      </trkpt>
      <trkpt lat="43.94188" lon="1.8578">
        <ele>218</ele>
        <time>2008-01-30T13:08:39.000Z</time>
      </trkpt>
      <trkpt lat="43.9418" lon="1.85755">
        <ele>215</ele>
        <time>2008-01-30T13:09:0.000Z</time>
      </trkpt>
      <trkpt lat="43.94167" lon="1.85738">
        <ele>214</ele>
        <time>2008-01-30T13:09:21.000Z</time>
      </trkpt>
      <trkpt lat="43.94155" lon="1.85718">
        <ele>214</ele>
        <time>2008-01-30T13:09:47.000Z</time>
      </trkpt>
      <trkpt lat="43.94137" lon="1.85693">
        <ele>217</ele>
        <time>2008-01-30T13:10:17.000Z</time>
      </trkpt>
      <trkpt lat="43.94102" lon="1.85652">
        <ele>226</ele>
        <time>2008-01-30T13:11:18.000Z</time>
      </trkpt>
      <trkpt lat="43.94082" lon="1.85623">
        <ele>231</ele>
        <time>2008-01-30T13:12:0.000Z</time>
      </trkpt>
      <trkpt lat="43.94055" lon="1.85592">
        <ele>235</ele>
        <time>2008-01-30T13:12:49.000Z</time>
      </trkpt>
      <trkpt lat="43.94025" lon="1.85555">
        <ele>237</ele>
        <time>2008-01-30T13:13:44.000Z</time>
      </trkpt>
      <trkpt lat="43.94098" lon="1.85405">
        <ele>245</ele>
        <time>2008-01-30T13:16:3.000Z</time>
      </trkpt>
      <trkpt lat="43.9411" lon="1.853">
        <ele>255</ele>
        <time>2008-01-30T13:17:26.000Z</time>
      </trkpt>
      <trkpt lat="43.94113" lon="1.85275">
        <ele>260</ele>
        <time>2008-01-30T13:17:49.000Z</time>
      </trkpt>
      <trkpt lat="43.94067" lon="1.85218">
        <ele>269</ele>
        <time>2008-01-30T13:19:7.000Z</time>
      </trkpt>
      <trkpt lat="43.9405" lon="1.85192">
        <ele>273</ele>
        <time>2008-01-30T13:19:47.000Z</time>
      </trkpt>
      <trkpt lat="43.94005" lon="1.85192">
        <ele>272</ele>
        <time>2008-01-30T13:20:27.000Z</time>
      </trkpt>
      <trkpt lat="43.9398" lon="1.85202">
        <ele>272</ele>
        <time>2008-01-30T13:20:48.000Z</time>
      </trkpt>
      <trkpt lat="43.93942" lon="1.85207">
        <ele>271</ele>
        <time>2008-01-30T13:21:18.000Z</time>
      </trkpt>
      <trkpt lat="43.93915" lon="1.85213">
        <ele>270</ele>
        <time>2008-01-30T13:21:40.000Z</time>
      </trkpt>
      <trkpt lat="43.93872" lon="1.85245">
        <ele>264</ele>
        <time>2008-01-30T13:22:19.000Z</time>
      </trkpt>
      <trkpt lat="43.93788" lon="1.8524">
        <ele>263</ele>
        <time>2008-01-30T13:23:25.000Z</time>
      </trkpt>
      <trkpt lat="43.9376" lon="1.85242">
        <ele>261</ele>
        <time>2008-01-30T13:23:50.000Z</time>
      </trkpt>
      <trkpt lat="43.93712" lon="1.8527">
        <ele>257</ele>
        <time>2008-01-30T13:24:41.000Z</time>
      </trkpt>
      <trkpt lat="43.93695" lon="1.8526">
        <ele>256</ele>
        <time>2008-01-30T13:24:59.000Z</time>
      </trkpt>
      <trkpt lat="43.9368" lon="1.85245">
        <ele>256</ele>
        <time>2008-01-30T13:25:16.000Z</time>
      </trkpt>
      <trkpt lat="43.93667" lon="1.85213">
        <ele>257</ele>
        <time>2008-01-30T13:25:40.000Z</time>
      </trkpt>
      <trkpt lat="43.93662" lon="1.85183">
        <ele>258</ele>
        <time>2008-01-30T13:26:5.000Z</time>
      </trkpt>
      <trkpt lat="43.93612" lon="1.85145">
        <ele>252</ele>
        <time>2008-01-30T13:27:5.000Z</time>
      </trkpt>
      <trkpt lat="43.93582" lon="1.85138">
        <ele>250</ele>
        <time>2008-01-30T13:27:32.000Z</time>
      </trkpt>
      <trkpt lat="43.93558" lon="1.85135">
        <ele>252</ele>
        <time>2008-01-30T13:27:57.000Z</time>
      </trkpt>
      <trkpt lat="43.93518" lon="1.85152">
        <ele>255</ele>
        <time>2008-01-30T13:28:42.000Z</time>
      </trkpt>
      <trkpt lat="43.93497" lon="1.85163">
        <ele>257</ele>
        <time>2008-01-30T13:29:4.000Z</time>
      </trkpt>
      <trkpt lat="43.9348" lon="1.8518">
        <ele>258</ele>
        <time>2008-01-30T13:29:31.000Z</time>
      </trkpt>
      <trkpt lat="43.93457" lon="1.85193">
        <ele>261</ele>
        <time>2008-01-30T13:29:59.000Z</time>
      </trkpt>
      <trkpt lat="43.93442" lon="1.8522">
        <ele>261</ele>
        <time>2008-01-30T13:30:22.000Z</time>
      </trkpt>
      <trkpt lat="43.93427" lon="1.8524">
        <ele>261</ele>
        <time>2008-01-30T13:30:42.000Z</time>
      </trkpt>
      <trkpt lat="43.93413" lon="1.8526">
        <ele>261</ele>
        <time>2008-01-30T13:30:59.000Z</time>
      </trkpt>
      <trkpt lat="43.93382" lon="1.8529">
        <ele>261</ele>
        <time>2008-01-30T13:31:44.000Z</time>
      </trkpt>
      <trkpt lat="43.93363" lon="1.85298">
        <ele>263</ele>
        <time>2008-01-30T13:32:3.000Z</time>
      </trkpt>
      <trkpt lat="43.93348" lon="1.85317">
        <ele>261</ele>
        <time>2008-01-30T13:32:25.000Z</time>
      </trkpt>
      <trkpt lat="43.93333" lon="1.85357">
        <ele>261</ele>
        <time>2008-01-30T13:32:57.000Z</time>
      </trkpt>
      <trkpt lat="43.93325" lon="1.85387">
        <ele>260</ele>
        <time>2008-01-30T13:33:20.000Z</time>
      </trkpt>
      <trkpt lat="43.93322" lon="1.8541">
        <ele>259</ele>
        <time>2008-01-30T13:33:35.000Z</time>
      </trkpt>
      <trkpt lat="43.93287" lon="1.85468">
        <ele>261</ele>
        <time>2008-01-30T13:34:34.000Z</time>
      </trkpt>
      <trkpt lat="43.93265" lon="1.85508">
        <ele>262</ele>
        <time>2008-01-30T13:35:9.000Z</time>
      </trkpt>
      <trkpt lat="43.93258" lon="1.8554">
        <ele>264</ele>
        <time>2008-01-30T13:37:0.000Z</time>
      </trkpt>
      <trkpt lat="43.93245" lon="1.85548">
        <ele>264</ele>
        <time>2008-01-30T13:38:7.000Z</time>
      </trkpt>
      <trkpt lat="43.93262" lon="1.85518">
        <ele>263</ele>
        <time>2008-01-30T13:38:39.000Z</time>
      </trkpt>
      <trkpt lat="43.93268" lon="1.85495">
        <ele>262</ele>
        <time>2008-01-30T13:38:59.000Z</time>
      </trkpt>
      <trkpt lat="43.93272" lon="1.85467">
        <ele>263</ele>
        <time>2008-01-30T13:39:25.000Z</time>
      </trkpt>
      <trkpt lat="43.93275" lon="1.85445">
        <ele>264</ele>
        <time>2008-01-30T13:39:43.000Z</time>
      </trkpt>
      <trkpt lat="43.93278" lon="1.85417">
        <ele>265</ele>
        <time>2008-01-30T13:40:4.000Z</time>
      </trkpt>
      <trkpt lat="43.93283" lon="1.85362">
        <ele>270</ele>
        <time>2008-01-30T13:40:43.000Z</time>
      </trkpt>
      <trkpt lat="43.9328" lon="1.85337">
        <ele>274</ele>
        <time>2008-01-30T13:40:59.000Z</time>
      </trkpt>
      <trkpt lat="43.93282" lon="1.85307">
        <ele>277</ele>
        <time>2008-01-30T13:41:20.000Z</time>
      </trkpt>
      <trkpt lat="43.93287" lon="1.85288">
        <ele>279</ele>
        <time>2008-01-30T13:41:34.000Z</time>
      </trkpt>
      <trkpt lat="43.93255" lon="1.85203">
        <ele>283</ele>
        <time>2008-01-30T13:42:32.000Z</time>
      </trkpt>
      <trkpt lat="43.93247" lon="1.8516">
        <ele>283</ele>
        <time>2008-01-30T13:42:58.000Z</time>
      </trkpt>
      <trkpt lat="43.93237" lon="1.85117">
        <ele>284</ele>
        <time>2008-01-30T13:43:25.000Z</time>
      </trkpt>
      <trkpt lat="43.93203" lon="1.8502">
        <ele>283</ele>
        <time>2008-01-30T13:44:27.000Z</time>
      </trkpt>
      <trkpt lat="43.93192" lon="1.84992">
        <ele>283</ele>
        <time>2008-01-30T13:44:45.000Z</time>
      </trkpt>
      <trkpt lat="43.9317" lon="1.8498">
        <ele>284</ele>
        <time>2008-01-30T13:45:4.000Z</time>
      </trkpt>
      <trkpt lat="43.93112" lon="1.84995">
        <ele>285</ele>
        <time>2008-01-30T13:45:54.000Z</time>
      </trkpt>
      <trkpt lat="43.93037" lon="1.85045">
        <ele>285</ele>
        <time>2008-01-30T13:47:7.000Z</time>
      </trkpt>
      <trkpt lat="43.93015" lon="1.85052">
        <ele>284</ele>
        <time>2008-01-30T13:47:28.000Z</time>
      </trkpt>
      <trkpt lat="43.92983" lon="1.85075">
        <ele>283</ele>
        <time>2008-01-30T13:48:0.000Z</time>
      </trkpt>
      <trkpt lat="43.92952" lon="1.85083">
        <ele>283</ele>
        <time>2008-01-30T13:48:36.000Z</time>
      </trkpt>
      <trkpt lat="43.92898" lon="1.85093">
        <ele>280</ele>
        <time>2008-01-30T13:49:28.000Z</time>
      </trkpt>
      <trkpt lat="43.92773" lon="1.85162">
        <ele>275</ele>
        <time>2008-01-30T13:51:19.000Z</time>
      </trkpt>
      <trkpt lat="43.92755" lon="1.85165">
        <ele>274</ele>
        <time>2008-01-30T13:51:44.000Z</time>
      </trkpt>
      <trkpt lat="43.92733" lon="1.85168">
        <ele>274</ele>
        <time>2008-01-30T13:52:11.000Z</time>
      </trkpt>
      <trkpt lat="43.92703" lon="1.85182">
        <ele>273</ele>
        <time>2008-01-30T13:52:44.000Z</time>
      </trkpt>
      <trkpt lat="43.92677" lon="1.85185">
        <ele>273</ele>
        <time>2008-01-30T13:53:10.000Z</time>
      </trkpt>
      <trkpt lat="43.92618" lon="1.85195">
        <ele>271</ele>
        <time>2008-01-30T13:54:1.000Z</time>
      </trkpt>
      <trkpt lat="43.92592" lon="1.85215">
        <ele>267</ele>
        <time>2008-01-30T13:54:28.000Z</time>
      </trkpt>
      <trkpt lat="43.92577" lon="1.8523">
        <ele>264</ele>
        <time>2008-01-30T13:54:44.000Z</time>
      </trkpt>
      <trkpt lat="43.92565" lon="1.85247">
        <ele>261</ele>
        <time>2008-01-30T13:54:57.000Z</time>
      </trkpt>
      <trkpt lat="43.92548" lon="1.85282">
        <ele>255</ele>
        <time>2008-01-30T13:55:23.000Z</time>
      </trkpt>
      <trkpt lat="43.92507" lon="1.85422">
        <ele>246</ele>
        <time>2008-01-30T13:56:55.000Z</time>
      </trkpt>
      <trkpt lat="43.92497" lon="1.85462">
        <ele>246</ele>
        <time>2008-01-30T13:57:22.000Z</time>
      </trkpt>
      <trkpt lat="43.92467" lon="1.85533">
        <ele>242</ele>
        <time>2008-01-30T13:58:13.000Z</time>
      </trkpt>
      <trkpt lat="43.92455" lon="1.85567">
        <ele>240</ele>
        <time>2008-01-30T13:58:36.000Z</time>
      </trkpt>
      <trkpt lat="43.92443" lon="1.85588">
        <ele>238</ele>
        <time>2008-01-30T13:58:54.000Z</time>
      </trkpt>
      <trkpt lat="43.9242" lon="1.85617">
        <ele>236</ele>
        <time>2008-01-30T13:59:26.000Z</time>
      </trkpt>
      <trkpt lat="43.924" lon="1.85648">
        <ele>237</ele>
        <time>2008-01-30T13:59:58.000Z</time>
      </trkpt>
      <trkpt lat="43.92393" lon="1.85687">
        <ele>231</ele>
        <time>2008-01-30T14:00:25.000Z</time>
      </trkpt>
      <trkpt lat="43.92392" lon="1.85868">
        <ele>217</ele>
        <time>2008-01-30T14:02:25.000Z</time>
      </trkpt>
      <trkpt lat="43.92362" lon="1.8597">
        <ele>215</ele>
        <time>2008-01-30T14:03:37.000Z</time>
      </trkpt>
      <trkpt lat="43.92343" lon="1.86">
        <ele>215</ele>
        <time>2008-01-30T14:04:4.000Z</time>
      </trkpt>
      <trkpt lat="43.92317" lon="1.86027">
        <ele>214</ele>
        <time>2008-01-30T14:04:34.000Z</time>
      </trkpt>
      <trkpt lat="43.92293" lon="1.86042">
        <ele>214</ele>
        <time>2008-01-30T14:04:57.000Z</time>
      </trkpt>
      <trkpt lat="43.92255" lon="1.86037">
        <ele>211</ele>
        <time>2008-01-30T14:05:32.000Z</time>
      </trkpt>
      <trkpt lat="43.9221" lon="1.86018">
        <ele>206</ele>
        <time>2008-01-30T14:06:14.000Z</time>
      </trkpt>
      <trkpt lat="43.92185" lon="1.86022">
        <ele>204</ele>
        <time>2008-01-30T14:06:38.000Z</time>
      </trkpt>
      <trkpt lat="43.92162" lon="1.86042">
        <ele>205</ele>
        <time>2008-01-30T14:07:1.000Z</time>
      </trkpt>
      <trkpt lat="43.9201" lon="1.86303">
        <ele>188</ele>
        <time>2008-01-30T14:10:26.000Z</time>
      </trkpt>
      <trkpt lat="43.91985" lon="1.86375">
        <ele>185</ele>
        <time>2008-01-30T14:11:8.000Z</time>
      </trkpt>
      <trkpt lat="43.9194" lon="1.86432">
        <ele>180</ele>
        <time>2008-01-30T14:11:53.000Z</time>
      </trkpt>
      <trkpt lat="43.91912" lon="1.8648">
        <ele>177</ele>
        <time>2008-01-30T14:12:26.000Z</time>
      </trkpt>
      <trkpt lat="43.9186" lon="1.86577">
        <ele>174</ele>
        <time>2008-01-30T14:13:32.000Z</time>
      </trkpt>
      <trkpt lat="43.91828" lon="1.86662">
        <ele>173</ele>
        <time>2008-01-30T14:14:25.000Z</time>
      </trkpt>
      <trkpt lat="43.91802" lon="1.86732">
        <ele>170</ele>
        <time>2008-01-30T14:15:20.000Z</time>
      </trkpt>
      <trkpt lat="43.91735" lon="1.86685">
        <ele>170</ele>
        <time>2008-01-30T14:16:31.000Z</time>
      </trkpt>
      <trkpt lat="43.91687" lon="1.86628">
        <ele>177</ele>
        <time>2008-01-30T14:17:31.000Z</time>
      </trkpt>
      <trkpt lat="43.91703" lon="1.86577">
        <ele>180</ele>
        <time>2008-01-30T14:18:19.000Z</time>
      </trkpt>
      <trkpt lat="43.91717" lon="1.86542">
        <ele>182</ele>
        <time>2008-01-30T14:18:48.000Z</time>
      </trkpt>
      <trkpt lat="43.9173" lon="1.86522">
        <ele>181</ele>
        <time>2008-01-30T14:19:5.000Z</time>
      </trkpt>
      <trkpt lat="43.91747" lon="1.86498">
        <ele>181</ele>
        <time>2008-01-30T14:19:25.000Z</time>
      </trkpt>
      <trkpt lat="43.91763" lon="1.86467">
        <ele>180</ele>
        <time>2008-01-30T14:19:49.000Z</time>
      </trkpt>
      <trkpt lat="43.918" lon="1.864">
        <ele>180</ele>
        <time>2008-01-30T14:20:39.000Z</time>
      </trkpt>
      <trkpt lat="43.91807" lon="1.86378">
        <ele>180</ele>
        <time>2008-01-30T14:20:53.000Z</time>
      </trkpt>
      <trkpt lat="43.9184" lon="1.86288">
        <ele>180</ele>
        <time>2008-01-30T14:21:55.000Z</time>
      </trkpt>
      <trkpt lat="43.91865" lon="1.86208">
        <ele>181</ele>
        <time>2008-01-30T14:22:48.000Z</time>
      </trkpt>
      <trkpt lat="43.91882" lon="1.86165">
        <ele>182</ele>
        <time>2008-01-30T14:23:18.000Z</time>
      </trkpt>
      <trkpt lat="43.91885" lon="1.86138">
        <ele>183</ele>
        <time>2008-01-30T14:23:36.000Z</time>
      </trkpt>
      <trkpt lat="43.9187" lon="1.8613">
        <ele>186</ele>
        <time>2008-01-30T14:23:55.000Z</time>
      </trkpt>
      <trkpt lat="43.91793" lon="1.86073">
        <ele>194</ele>
        <time>2008-01-30T14:25:25.000Z</time>
      </trkpt>
      <trkpt lat="43.91797" lon="1.86042">
        <ele>194</ele>
        <time>2008-01-30T14:25:49.000Z</time>
      </trkpt>
      <trkpt lat="43.91847" lon="1.85937">
        <ele>194</ele>
        <time>2008-01-30T14:27:7.000Z</time>
      </trkpt>
      <trkpt lat="43.91743" lon="1.85797">
        <ele>201</ele>
        <time>2008-01-30T14:29:11.000Z</time>
      </trkpt>
      <trkpt lat="43.9171" lon="1.85817">
        <ele>198</ele>
        <time>2008-01-30T14:29:56.000Z</time>
      </trkpt>
      <trkpt lat="43.91613" lon="1.85935">
        <ele>188</ele>
        <time>2008-01-30T14:31:41.000Z</time>
      </trkpt>
      <trkpt lat="43.9159" lon="1.8596">
        <ele>187</ele>
        <time>2008-01-30T14:32:3.000Z</time>
      </trkpt>
      <trkpt lat="43.91548" lon="1.86005">
        <ele>186</ele>
        <time>2008-01-30T14:32:46.000Z</time>
      </trkpt>
      <trkpt lat="43.91492" lon="1.86043">
        <ele>183</ele>
        <time>2008-01-30T14:33:37.000Z</time>
      </trkpt>
      <trkpt lat="43.91457" lon="1.85987">
        <ele>182</ele>
        <time>2008-01-30T14:34:25.000Z</time>
      </trkpt>
      <trkpt lat="43.91458" lon="1.85953">
        <ele>183</ele>
        <time>2008-01-30T14:34:50.000Z</time>
      </trkpt>
      <trkpt lat="43.91487" lon="1.85915">
        <ele>188</ele>
        <time>2008-01-30T14:35:34.000Z</time>
      </trkpt>
      <trkpt lat="43.91495" lon="1.85893">
        <ele>191</ele>
        <time>2008-01-30T14:35:52.000Z</time>
      </trkpt>
      <trkpt lat="43.91498" lon="1.85875">
        <ele>193</ele>
        <time>2008-01-30T14:36:8.000Z</time>
      </trkpt>
      <trkpt lat="43.91512" lon="1.85855">
        <ele>196</ele>
        <time>2008-01-30T14:36:40.000Z</time>
      </trkpt>
      <trkpt lat="43.9152" lon="1.85822">
        <ele>200</ele>
        <time>2008-01-30T14:37:13.000Z</time>
      </trkpt>
      <trkpt lat="43.9154" lon="1.8578">
        <ele>206</ele>
        <time>2008-01-30T14:37:55.000Z</time>
      </trkpt>
      <trkpt lat="43.91555" lon="1.85733">
        <ele>214</ele>
        <time>2008-01-30T14:38:45.000Z</time>
      </trkpt>
      <trkpt lat="43.9156" lon="1.85715">
        <ele>218</ele>
        <time>2008-01-30T14:39:10.000Z</time>
      </trkpt>
      <trkpt lat="43.91582" lon="1.85632">
        <ele>234</ele>
        <time>2008-01-30T14:40:37.000Z</time>
      </trkpt>
      <trkpt lat="43.91602" lon="1.85583">
        <ele>244</ele>
        <time>2008-01-30T14:41:27.000Z</time>
      </trkpt>
      <trkpt lat="43.91615" lon="1.8555">
        <ele>250</ele>
        <time>2008-01-30T14:42:3.000Z</time>
      </trkpt>
      <trkpt lat="43.9161" lon="1.85532">
        <ele>253</ele>
        <time>2008-01-30T14:42:24.000Z</time>
      </trkpt>
      <trkpt lat="43.91595" lon="1.85507">
        <ele>254</ele>
        <time>2008-01-30T14:46:32.000Z</time>
      </trkpt>
      <trkpt lat="43.91583" lon="1.85485">
        <ele>253</ele>
        <time>2008-01-30T14:48:34.000Z</time>
      </trkpt>
      <trkpt lat="43.91552" lon="1.85433">
        <ele>240</ele>
        <time>2008-01-30T14:50:10.000Z</time>
      </trkpt>
      <trkpt lat="43.9153" lon="1.85448">
        <ele>235</ele>
        <time>2008-01-30T14:51:10.000Z</time>
      </trkpt>
      <trkpt lat="43.91513" lon="1.85463">
        <ele>231</ele>
        <time>2008-01-30T14:51:51.000Z</time>
      </trkpt>
      <trkpt lat="43.91495" lon="1.85483">
        <ele>227</ele>
        <time>2008-01-30T14:53:31.000Z</time>
      </trkpt>
      <trkpt lat="43.9143" lon="1.85548">
        <ele>214</ele>
        <time>2008-01-30T14:55:29.000Z</time>
      </trkpt>
      <trkpt lat="43.91412" lon="1.85563">
        <ele>211</ele>
        <time>2008-01-30T14:55:50.000Z</time>
      </trkpt>
      <trkpt lat="43.91377" lon="1.85653">
        <ele>209</ele>
        <time>2008-01-30T14:57:0.000Z</time>
      </trkpt>
      <trkpt lat="43.91358" lon="1.85688">
        <ele>205</ele>
        <time>2008-01-30T14:57:29.000Z</time>
      </trkpt>
      <trkpt lat="43.91337" lon="1.85703">
        <ele>202</ele>
        <time>2008-01-30T14:57:59.000Z</time>
      </trkpt>
      <trkpt lat="43.91313" lon="1.85718">
        <ele>198</ele>
        <time>2008-01-30T14:58:20.000Z</time>
      </trkpt>
      <trkpt lat="43.91268" lon="1.85795">
        <ele>187</ele>
        <time>2008-01-30T14:59:17.000Z</time>
      </trkpt>
      <trkpt lat="43.91255" lon="1.85838">
        <ele>182</ele>
        <time>2008-01-30T14:59:45.000Z</time>
      </trkpt>
      <trkpt lat="43.91245" lon="1.8587">
        <ele>179</ele>
        <time>2008-01-30T15:00:4.000Z</time>
      </trkpt>
      <trkpt lat="43.91233" lon="1.85947">
        <ele>173</ele>
        <time>2008-01-30T15:00:48.000Z</time>
      </trkpt>
      <trkpt lat="43.91213" lon="1.85998">
        <ele>169</ele>
        <time>2008-01-30T15:01:23.000Z</time>
      </trkpt>
      <trkpt lat="43.9116" lon="1.86075">
        <ele>165</ele>
        <time>2008-01-30T15:03:32.000Z</time>
      </trkpt>
      <trkpt lat="43.91147" lon="1.86108">
        <ele>164</ele>
        <time>2008-01-30T15:03:59.000Z</time>
      </trkpt>
      <trkpt lat="43.91135" lon="1.86148">
        <ele>163</ele>
        <time>2008-01-30T15:04:26.000Z</time>
      </trkpt>
      <trkpt lat="43.91115" lon="1.8621">
        <ele>162</ele>
        <time>2008-01-30T15:05:8.000Z</time>
      </trkpt>
      <trkpt lat="43.91038" lon="1.86333">
        <ele>159</ele>
        <time>2008-01-30T15:06:41.000Z</time>
      </trkpt>
      <trkpt lat="43.91015" lon="1.8635">
        <ele>159</ele>
        <time>2008-01-30T15:07:1.000Z</time>
      </trkpt>
      <trkpt lat="43.90977" lon="1.86367">
        <ele>157</ele>
        <time>2008-01-30T15:07:32.000Z</time>
      </trkpt>
      <trkpt lat="43.90932" lon="1.86402">
        <ele>156</ele>
        <time>2008-01-30T15:08:10.000Z</time>
      </trkpt>
      <trkpt lat="43.9085" lon="1.86533">
        <ele>154</ele>
        <time>2008-01-30T15:10:9.000Z</time>
      </trkpt>
      <trkpt lat="43.90842" lon="1.86555">
        <ele>154</ele>
        <time>2008-01-30T15:11:28.000Z</time>
      </trkpt>
      <trkpt lat="43.90845" lon="1.86587">
        <ele>154</ele>
        <time>2008-01-30T15:11:54.000Z</time>
      </trkpt>
      <trkpt lat="43.90838" lon="1.86642">
        <ele>154</ele>
        <time>2008-01-30T15:12:30.000Z</time>
      </trkpt>
      <trkpt lat="43.90827" lon="1.86683">
        <ele>153</ele>
        <time>2008-01-30T15:12:57.000Z</time>
      </trkpt>
      <trkpt lat="43.90812" lon="1.86715">
        <ele>152</ele>
        <time>2008-01-30T15:13:21.000Z</time>
      </trkpt>
      <trkpt lat="43.90793" lon="1.86745">
        <ele>152</ele>
        <time>2008-01-30T15:13:45.000Z</time>
      </trkpt>
      <trkpt lat="43.90757" lon="1.86812">
        <ele>151</ele>
        <time>2008-01-30T15:14:38.000Z</time>
      </trkpt>
      <trkpt lat="43.90728" lon="1.86863">
        <ele>151</ele>
        <time>2008-01-30T15:15:17.000Z</time>
      </trkpt>
      <trkpt lat="43.90712" lon="1.86918">
        <ele>151</ele>
        <time>2008-01-30T15:15:51.000Z</time>
      </trkpt>
      <trkpt lat="43.90698" lon="1.87118">
        <ele>150</ele>
        <time>2008-01-30T15:17:45.000Z</time>
      </trkpt>
      <trkpt lat="43.90693" lon="1.87237">
        <ele>150</ele>
        <time>2008-01-30T15:18:57.000Z</time>
      </trkpt>
      <trkpt lat="43.90685" lon="1.87365">
        <ele>150</ele>
        <time>2008-01-30T15:20:11.000Z</time>
      </trkpt>
      <trkpt lat="43.90682" lon="1.87412">
        <ele>149</ele>
        <time>2008-01-30T15:20:38.000Z</time>
      </trkpt>
      <trkpt lat="43.90687" lon="1.87457">
        <ele>149</ele>
        <time>2008-01-30T15:21:4.000Z</time>
      </trkpt>
      <trkpt lat="43.90695" lon="1.87493">
        <ele>149</ele>
        <time>2008-01-30T15:21:27.000Z</time>
      </trkpt>
      <trkpt lat="43.90722" lon="1.876">
        <ele>149</ele>
        <time>2008-01-30T15:22:31.000Z</time>
      </trkpt>
      <trkpt lat="43.90757" lon="1.87705">
        <ele>148</ele>
        <time>2008-01-30T15:23:38.000Z</time>
      </trkpt>
      <trkpt lat="43.90763" lon="1.8775">
        <ele>148</ele>
        <time>2008-01-30T15:24:4.000Z</time>
      </trkpt>
      <trkpt lat="43.90757" lon="1.87807">
        <ele>148</ele>
        <time>2008-01-30T15:24:35.000Z</time>
      </trkpt>
      <trkpt lat="43.90753" lon="1.8786">
        <ele>148</ele>
        <time>2008-01-30T15:25:5.000Z</time>
      </trkpt>
      <trkpt lat="43.90753" lon="1.87935">
        <ele>148</ele>
        <time>2008-01-30T15:25:47.000Z</time>
      </trkpt>
      <trkpt lat="43.90767" lon="1.88008">
        <ele>148</ele>
        <time>2008-01-30T15:26:33.000Z</time>
      </trkpt>
      <trkpt lat="43.9077" lon="1.88062">
        <ele>148</ele>
        <time>2008-01-30T15:27:6.000Z</time>
      </trkpt>
      <trkpt lat="43.90767" lon="1.88155">
        <ele>148</ele>
        <time>2008-01-30T15:27:56.000Z</time>
      </trkpt>
      <trkpt lat="43.90712" lon="1.88483">
        <ele>146</ele>
        <time>2008-01-30T15:31:13.000Z</time>
      </trkpt>
      <trkpt lat="43.90702" lon="1.88513">
        <ele>145</ele>
        <time>2008-01-30T15:31:34.000Z</time>
      </trkpt>
      <trkpt lat="43.9069" lon="1.88552">
        <ele>145</ele>
        <time>2008-01-30T15:32:1.000Z</time>
      </trkpt>
      <trkpt lat="43.90685" lon="1.8858">
        <ele>145</ele>
        <time>2008-01-30T15:32:18.000Z</time>
      </trkpt>
      <trkpt lat="43.90685" lon="1.88618">
        <ele>145</ele>
        <time>2008-01-30T15:32:39.000Z</time>
      </trkpt>
      <trkpt lat="43.90673" lon="1.88687">
        <ele>144</ele>
        <time>2008-01-30T15:33:19.000Z</time>
      </trkpt>
      <trkpt lat="43.90673" lon="1.88793">
        <ele>143</ele>
        <time>2008-01-30T15:34:30.000Z</time>
      </trkpt>
      <trkpt lat="43.9067" lon="1.88817">
        <ele>143</ele>
        <time>2008-01-30T15:37:21.000Z</time>
      </trkpt>
      <trkpt lat="43.90668" lon="1.88848">
        <ele>143</ele>
        <time>2008-01-30T15:37:42.000Z</time>
      </trkpt>
      <trkpt lat="43.90668" lon="1.88927">
        <ele>142</ele>
        <time>2008-01-30T15:38:30.000Z</time>
      </trkpt>
      <trkpt lat="43.90667" lon="1.8902">
        <ele>142</ele>
        <time>2008-01-30T15:39:27.000Z</time>
      </trkpt>
      <trkpt lat="43.90665" lon="1.89048">
        <ele>142</ele>
        <time>2008-01-30T15:39:44.000Z</time>
      </trkpt>
      <trkpt lat="43.90665" lon="1.89168">
        <ele>143</ele>
        <time>2008-01-30T15:40:55.000Z</time>
      </trkpt>
      <trkpt lat="43.90662" lon="1.89195">
        <ele>143</ele>
        <time>2008-01-30T15:41:10.000Z</time>
      </trkpt>
      <trkpt lat="43.90658" lon="1.89232">
        <ele>143</ele>
        <time>2008-01-30T15:41:35.000Z</time>
      </trkpt>
      <trkpt lat="43.90642" lon="1.89348">
        <ele>143</ele>
        <time>2008-01-30T15:42:48.000Z</time>
      </trkpt>
      <trkpt lat="43.90635" lon="1.89385">
        <ele>143</ele>
        <time>2008-01-30T15:43:10.000Z</time>
      </trkpt>
      <trkpt lat="43.90627" lon="1.8941">
        <ele>143</ele>
        <time>2008-01-30T15:43:35.000Z</time>
      </trkpt>
      <trkpt lat="43.90642" lon="1.89453">
        <ele>142</ele>
        <time>2008-01-30T15:44:5.000Z</time>
      </trkpt>
      <trkpt lat="43.9067" lon="1.89523">
        <ele>142</ele>
        <time>2008-01-30T15:44:55.000Z</time>
      </trkpt>
      <trkpt lat="43.90687" lon="1.89555">
        <ele>141</ele>
        <time>2008-01-30T15:45:18.000Z</time>
      </trkpt>
      <trkpt lat="43.90705" lon="1.89597">
        <ele>141</ele>
        <time>2008-01-30T15:45:44.000Z</time>
      </trkpt>
      <trkpt lat="43.90723" lon="1.89633">
        <ele>141</ele>
        <time>2008-01-30T15:46:9.000Z</time>
      </trkpt>
      <trkpt lat="43.90745" lon="1.89678">
        <ele>141</ele>
        <time>2008-01-30T15:46:37.000Z</time>
      </trkpt>
      <trkpt lat="43.90755" lon="1.89707">
        <ele>141</ele>
        <time>2008-01-30T15:46:55.000Z</time>
      </trkpt>
      <trkpt lat="43.90768" lon="1.89747">
        <ele>140</ele>
        <time>2008-01-30T15:47:20.000Z</time>
      </trkpt>
      <trkpt lat="43.90777" lon="1.89773">
        <ele>140</ele>
        <time>2008-01-30T15:47:34.000Z</time>
      </trkpt>
      <trkpt lat="43.90787" lon="1.89805">
        <ele>140</ele>
        <time>2008-01-30T15:47:54.000Z</time>
      </trkpt>
      <trkpt lat="43.90803" lon="1.89833">
        <ele>140</ele>
        <time>2008-01-30T15:48:14.000Z</time>
      </trkpt>
      <trkpt lat="43.90823" lon="1.89877">
        <ele>140</ele>
        <time>2008-01-30T15:48:45.000Z</time>
      </trkpt>
      <trkpt lat="43.90833" lon="1.89908">
        <ele>140</ele>
        <time>2008-01-30T15:49:6.000Z</time>
      </trkpt>
      <trkpt lat="43.9085" lon="1.89923">
        <ele>141</ele>
        <time>2008-01-30T15:49:29.000Z</time>
      </trkpt>
      <trkpt lat="43.9088" lon="1.89935">
        <ele>141</ele>
        <time>2008-01-30T15:50:0.000Z</time>
      </trkpt>
      <trkpt lat="43.909" lon="1.89935">
        <ele>141</ele>
        <time>2008-01-30T15:50:16.000Z</time>
      </trkpt>
      <trkpt lat="43.90947" lon="1.89927">
        <ele>141</ele>
        <time>2008-01-30T15:50:45.000Z</time>
      </trkpt>
      <trkpt lat="43.90963" lon="1.89945">
        <ele>141</ele>
        <time>2008-01-30T15:51:0.000Z</time>
      </trkpt>
      <trkpt lat="43.9098" lon="1.89995">
        <ele>142</ele>
        <time>2008-01-30T15:51:32.000Z</time>
      </trkpt>
      <trkpt lat="43.90992" lon="1.90015">
        <ele>142</ele>
        <time>2008-01-30T15:51:47.000Z</time>
      </trkpt>
    </trkseg>
  </trk>
</gpx>